METAR Data
IDs: Format: Raw Decoded Include TAF

Data at: 0846 UTC 10 Dec 2022

KSEA 100753Z 11010KT 8SM -RA BKN038 OVC050 04/02 A2935 RMK AO2 SLP948 P0005 T00440017 400610022
KSEA 100653Z 11013G19KT 7SM -RA BKN039 OVC050 04/02 A2937 RMK AO2 SLP953 P0004 T00440017
KSEA 100553Z 11012KT 9SM -RA OVC037 04/02 A2938 RMK AO2 SLP958 P0005 60040 T00440017 10056 20039 58033
KSEA 100453Z 11011KT 7SM -RA OVC030 04/02 A2942 RMK AO2 SLP972 P0008 T00390017
KSEA 100353Z 14010G19KT 7SM -RA OVC031 04/02 A2945 RMK AO2 SLP981 P0006 T00390017
KSEA 100253Z 12010KT 6SM -RA BR FEW014 OVC032 04/02 A2948 RMK AO2 SLP992 P0007 60021 T00390017 56046
KSEA 100153Z 11012G23KT 5SM -RA FEW014 OVC028 04/01 A2950 RMK AO2 SLP000 P0011 T00390011
KSEA 100053Z 12007KT 7SM -RA OVC024 04/01 A2957 RMK AO2 SLP021 P0003 T00440011
KSEA 100023Z 16008KT 9SM -RA FEW012 OVC028 05/01 A2959 RMK AO2 P0000 T00500006
KSEA 092353Z 11007KT 10SM -RA OVC034 06/00 A2962 RMK AO2 RAE2254B50 SLP039 P0000 60000 T00560000 10061 20044 58047
KSEA 092253Z 10008KT 10SM -RA OVC037 06/00 A2967 RMK AO2 RAB32 SLP055 P0000 T00610000
KSEA 092153Z 10009KT 10SM OVC043 06/00 A2972 RMK AO2 SLP073 T00610000
KSEA 092053Z 11006KT 10SM BKN050 OVC060 06/01 A2976 RMK AO2 SLP086 T00610006 58044
KSEA 091953Z 14006KT 10SM BKN055 OVC070 06/02 A2981 RMK AO2 SLP104 T00560017
KSEA 091853Z 11006KT 10SM SCT055 BKN070 OVC090 05/01 A2986 RMK AO2 SLP119 T00500011
KSEA 091753Z 16007KT 10SM FEW047 OVC060 04/01 A2989 RMK AO2 SLP131 60006 T00440006 10044 20022 58008
KSEA 091653Z 18009KT 10SM FEW035 SCT060 BKN200 04/01 A2990 RMK AO2 SLP135 T00390006
KSEA 091553Z 19007KT 10SM FEW027 BKN120 BKN200 03/01 A2991 RMK AO2 SLP136 T00280006
KSEA 091453Z 17009KT 10SM FEW027 SCT110 BKN200 02/01 A2991 RMK AO2 SLP139 60006 T00220006 58003
KSEA 091446Z 18007KT 10SM FEW027 BKN110 02/01 A2991 RMK AO2 T00220006
KSEA 091353Z 18007KT 10SM BKN029 OVC034 03/01 A2992 RMK AO2 RAE30 SLP139 P0002 T00280011
KSEA 091341Z 18007KT 10SM SCT014 BKN029 OVC034 03/01 A2991 RMK AO2 RAE30 P0002 T00280011
KSEA 091253Z 19006KT 5SM -RA BR SCT008 OVC014 02/01 A2992 RMK AO2 RAB11 SLP142 P0004 T00220011
KSEA 091246Z 18007KT 6SM -RA BR FEW008 OVC013 02/01 A2993 RMK AO2 RAB11 P0003 T00220011
KSEA 091207Z 15006KT 7SM FEW007 BKN025 OVC036 03/01 A2992 RMK AO2 T00280011
KSEA 091153Z 14007KT 10SM FEW030 OVC036 02/01 A2992 RMK AO2 RAE16 SLP142 P0000 60016 70024 T00220011 10039 20022 56009
KSEA 091105Z 17007KT 10SM -RA SCT023 OVC032 03/02 A2993 RMK AO2 P0000 T00280017
KSEA 091053Z 18007KT 10SM -RA FEW011 BKN025 OVC030 03/02 A2993 RMK AO2 RAE12B23 SLP145 P0004 T00280017
KSEA 091034Z 17009KT 7SM -RA SCT012 BKN024 OVC110 03/02 A2993 RMK AO2 RAE12B23 P0003 T00280017
KSEA 091013Z 18008KT 10SM FEW005 BKN050 OVC110 03/02 A2993 RMK AO2 RAE12 P0001 T00280017
KSEA 091004Z 20006KT 10SM -RA FEW005 BKN026 OVC050 03/02 A2993 RMK AO2 P0001 T00280017
KSEA 090953Z 16007KT 6SM -RA BR FEW005 SCT021 OVC030 03/02 A2994 RMK AO2 SLP146 P0007 T00280017
KSEA 090914Z 21011KT 6SM -RA BR FEW008 BKN022 OVC047 03/02 A2995 RMK AO2 P0003 T00280017
KSEA 090905Z 21010KT 9SM -RA FEW008 BKN030 OVC045 03/02 A2995 RMK AO2 P0001 T00280017
KSEA 090853Z 21010KT 8SM -RA FEW019 BKN024 OVC047 03/02 A2995 RMK AO2 RAB09 SLP151 P0005 60005 T00330017 50004